Time,TemperatureF,DewpointF,PressureIn,WindDirection,WindDirectionDegrees,WindSpeedMPH,WindSpeedGustMPH,Humidity,HourlyPrecipIn,Conditions,Clouds,dailyrainin,SolarRadiationWatts/m^2,SoftwareType,DateUTC
2013-05-14 00:01:00,63.0,29.0,-100.00,North,1,8.0,12.0,27,0.00,,,0.00,2.000000,,2013-05-14 07:01:00,
2013-05-14 00:11:00,63.0,29.0,-100.00,North,1,8.0,12.0,27,0.00,,,0.00,2.000000,,2013-05-14 07:11:00,
2013-05-14 00:42:00,63.0,27.0,-100.00,North,1,8.0,15.0,25,0.00,,,0.00,2.000000,,2013-05-14 07:42:00,
2013-05-14 00:52:00,63.0,27.0,-100.00,North,1,8.0,15.0,25,0.00,,,0.00,2.000000,,2013-05-14 07:52:00,
2013-05-14 01:02:00,63.0,27.0,-100.00,North,1,8.0,15.0,25,0.00,,,0.00,2.000000,,2013-05-14 08:02:00,
2013-05-14 01:11:00,63.0,27.0,-100.00,North,1,8.0,15.0,25,0.00,,,0.00,2.000000,,2013-05-14 08:11:00,
2013-05-14 01:42:00,63.0,26.0,-100.00,North,1,8.0,15.0,24,0.00,,,0.00,2.000000,,2013-05-14 08:42:00,
2013-05-14 01:52:00,63.0,26.0,-100.00,North,1,8.0,15.0,24,0.00,,,0.00,2.000000,,2013-05-14 08:52:00,
2013-05-14 02:01:00,63.0,26.0,-100.00,North,1,8.0,15.0,24,0.00,,,0.00,2.000000,,2013-05-14 09:01:00,
2013-05-14 02:11:00,63.0,26.0,-100.00,North,1,8.0,15.0,24,0.00,,,0.00,2.000000,,2013-05-14 09:11:00,
2013-05-14 02:44:00,62.0,26.0,-100.00,North,1,7.0,11.0,25,0.00,,,0.00,2.000000,,2013-05-14 09:44:00,
2013-05-14 02:54:00,62.0,26.0,-100.00,North,1,7.0,11.0,25,0.00,,,0.00,2.000000,,2013-05-14 09:54:00,
2013-05-14 03:04:00,62.0,26.0,-100.00,North,1,7.0,11.0,25,0.00,,,0.00,2.000000,,2013-05-14 10:04:00,
2013-05-14 03:14:00,62.0,26.0,-100.00,North,1,7.0,11.0,25,0.00,,,0.00,2.000000,,2013-05-14 10:14:00,
2013-05-14 03:33:00,61.0,22.0,-100.00,North,1,5.0,11.0,22,0.00,,,0.00,2.000000,,2013-05-14 10:33:00,
2013-05-14 03:42:00,61.0,22.0,-100.00,North,1,5.0,11.0,22,0.00,,,0.00,2.000000,,2013-05-14 10:42:00,
2013-05-14 03:52:00,61.0,22.0,-100.00,North,1,5.0,11.0,22,0.00,,,0.00,2.000000,,2013-05-14 10:52:00,
2013-05-14 04:02:00,61.0,22.0,-100.00,North,1,5.0,11.0,22,0.00,,,0.00,2.000000,,2013-05-14 11:02:00,
2013-05-14 04:11:00,61.0,22.0,-100.00,North,1,5.0,11.0,22,0.00,,,0.00,2.000000,,2013-05-14 11:11:00,
2013-05-14 04:32:00,61.0,22.0,-100.00,North,1,6.0,11.0,22,0.00,,,0.00,2.000000,,2013-05-14 11:32:00,
2013-05-14 04:43:00,61.0,22.0,-100.00,North,1,6.0,11.0,22,0.00,,,0.00,2.000000,,2013-05-14 11:43:00,
2013-05-14 04:53:00,61.0,22.0,-100.00,North,1,6.0,11.0,22,0.00,,,0.00,2.000000,,2013-05-14 11:53:00,
2013-05-14 05:02:00,61.0,22.0,-100.00,North,1,6.0,11.0,22,0.00,,,0.00,2.000000,,2013-05-14 12:02:00,
2013-05-14 05:12:00,61.0,22.0,-100.00,North,1,6.0,11.0,22,0.00,,,0.00,2.000000,,2013-05-14 12:12:00,
2013-05-14 05:42:00,60.0,23.0,-100.00,North,1,6.0,12.0,24,0.00,,,0.00,2.000000,,2013-05-14 12:42:00,
2013-05-14 05:52:00,60.0,23.0,-100.00,North,1,6.0,12.0,24,0.00,,,0.00,2.000000,,2013-05-14 12:52:00,
2013-05-14 06:01:00,60.0,23.0,-100.00,North,1,6.0,12.0,24,0.00,,,0.00,2.000000,,2013-05-14 13:01:00,
2013-05-14 06:11:00,60.0,23.0,-100.00,North,1,6.0,12.0,24,0.00,,,0.00,2.000000,,2013-05-14 13:11:00,
2013-05-14 06:42:00,58.0,25.0,-100.00,North,1,10.0,15.0,28,0.00,,,-99.99,8.000000,,2013-05-14 13:42:00,
2013-05-14 06:52:00,58.0,25.0,-100.00,North,1,10.0,15.0,28,0.00,,,-99.99,8.000000,,2013-05-14 13:52:00,
2013-05-14 07:01:00,58.0,25.0,-100.00,North,1,10.0,15.0,28,0.00,,,-99.99,8.000000,,2013-05-14 14:01:00,
2013-05-14 07:11:00,58.0,25.0,-100.00,North,1,10.0,15.0,28,0.00,,,-99.99,8.000000,,2013-05-14 14:11:00,
2013-05-14 07:32:00,60.0,23.0,-100.00,North,1,10.0,17.0,24,0.00,,,0.00,137.000000,,2013-05-14 14:32:00,
2013-05-14 07:42:00,60.0,23.0,-100.00,North,1,10.0,17.0,24,0.00,,,0.00,137.000000,,2013-05-14 14:42:00,
2013-05-14 07:52:00,60.0,23.0,-100.00,North,1,10.0,17.0,24,0.00,,,0.00,137.000000,,2013-05-14 14:52:00,
2013-05-14 08:01:00,60.0,23.0,-100.00,North,1,10.0,17.0,24,0.00,,,0.00,137.000000,,2013-05-14 15:01:00,
2013-05-14 08:11:00,60.0,23.0,-100.00,North,1,10.0,17.0,24,0.00,,,0.00,137.000000,,2013-05-14 15:11:00,
2013-05-14 08:43:00,63.0,22.0,-100.00,North,1,13.0,19.0,21,0.00,,,0.00,399.000000,,2013-05-14 15:43:00,
2013-05-14 08:53:00,63.0,22.0,-100.00,North,1,13.0,19.0,21,0.00,,,0.00,399.000000,,2013-05-14 15:53:00,
2013-05-14 09:02:00,63.0,22.0,-100.00,North,1,13.0,19.0,21,0.00,,,0.00,399.000000,,2013-05-14 16:02:00,
2013-05-14 09:12:00,63.0,22.0,-100.00,North,1,13.0,19.0,21,0.00,,,0.00,399.000000,,2013-05-14 16:12:00,
2013-05-14 09:44:00,64.0,23.0,-100.00,North,1,14.0,20.0,21,0.00,,,0.00,598.000000,,2013-05-14 16:44:00,
2013-05-14 09:54:00,64.0,23.0,-100.00,North,1,14.0,20.0,21,0.00,,,0.00,598.000000,,2013-05-14 16:54:00,
2013-05-14 10:03:00,64.0,23.0,-100.00,North,1,14.0,20.0,21,0.00,,,0.00,598.000000,,2013-05-14 17:03:00,
2013-05-14 10:13:00,64.0,23.0,-100.00,North,1,14.0,20.0,21,0.00,,,0.00,598.000000,,2013-05-14 17:13:00,
2013-05-14 10:43:00,66.0,24.0,-100.00,North,0,18.0,26.0,20,0.00,,,-99.99,859.000000,,2013-05-14 17:43:00,
2013-05-14 10:52:00,66.0,24.0,-100.00,North,0,18.0,26.0,20,0.00,,,-99.99,859.000000,,2013-05-14 17:52:00,
2013-05-14 11:02:00,66.0,24.0,-100.00,North,0,18.0,26.0,20,0.00,,,-99.99,859.000000,,2013-05-14 18:02:00,
2013-05-14 11:12:00,66.0,24.0,-100.00,North,0,18.0,26.0,20,0.00,,,-99.99,859.000000,,2013-05-14 18:12:00,
2013-05-14 11:42:00,67.0,29.0,-100.00,North,0,19.0,30.0,24,0.00,,,0.00,919.000000,,2013-05-14 18:42:00,
2013-05-14 11:52:00,67.0,29.0,-100.00,North,0,19.0,30.0,24,0.00,,,0.00,919.000000,,2013-05-14 18:52:00,
2013-05-14 12:01:00,67.0,29.0,-100.00,North,0,19.0,30.0,24,0.00,,,0.00,919.000000,,2013-05-14 19:01:00,
2013-05-14 12:11:00,67.0,29.0,-100.00,North,0,19.0,30.0,24,0.00,,,0.00,919.000000,,2013-05-14 19:11:00,
2013-05-14 12:42:00,66.0,37.0,-100.00,North,0,17.0,30.0,34,0.00,,,0.00,946.000000,,2013-05-14 19:42:00,
2013-05-14 12:52:00,66.0,37.0,-100.00,North,0,17.0,30.0,34,0.00,,,0.00,946.000000,,2013-05-14 19:52:00,
2013-05-14 13:02:00,66.0,37.0,-100.00,North,0,17.0,30.0,34,0.00,,,0.00,946.000000,,2013-05-14 20:02:00,
2013-05-14 13:11:00,66.0,37.0,-100.00,North,0,17.0,30.0,34,0.00,,,0.00,946.000000,,2013-05-14 20:11:00,
2013-05-14 13:44:00,66.0,36.0,-100.00,North,0,18.0,31.0,33,0.00,,,0.00,1173.000000,,2013-05-14 20:44:00,
2013-05-14 13:52:00,66.0,36.0,-100.00,North,0,18.0,31.0,33,0.00,,,0.00,1173.000000,,2013-05-14 20:52:00,
2013-05-14 14:03:00,66.0,36.0,-100.00,North,0,18.0,31.0,33,0.00,,,0.00,1173.000000,,2013-05-14 21:03:00,
2013-05-14 14:12:00,66.0,36.0,-100.00,North,0,18.0,31.0,33,0.00,,,0.00,1173.000000,,2013-05-14 21:12:00,
2013-05-14 14:43:00,66.0,34.0,-100.00,North,0,18.0,30.0,31,0.00,,,0.00,1136.000000,,2013-05-14 21:43:00,
2013-05-14 14:53:00,66.0,34.0,-100.00,North,0,18.0,30.0,31,0.00,,,0.00,1136.000000,,2013-05-14 21:53:00,
2013-05-14 15:03:00,66.0,34.0,-100.00,North,0,18.0,30.0,31,0.00,,,0.00,1136.000000,,2013-05-14 22:03:00,
2013-05-14 15:13:00,66.0,34.0,-100.00,North,0,18.0,30.0,31,0.00,,,0.00,1136.000000,,2013-05-14 22:13:00,
2013-05-14 15:45:00,65.0,34.0,-100.00,North,0,16.0,25.0,31,0.00,,,0.00,1046.000000,,2013-05-14 22:45:00,
2013-05-14 15:54:00,65.0,34.0,-100.00,North,0,16.0,25.0,31,0.00,,,0.00,1046.000000,,2013-05-14 22:54:00,
2013-05-14 16:03:00,65.0,34.0,-100.00,North,0,16.0,25.0,31,0.00,,,0.00,1046.000000,,2013-05-14 23:03:00,
2013-05-14 16:12:00,65.0,34.0,-100.00,North,0,16.0,25.0,31,0.00,,,0.00,1046.000000,,2013-05-14 23:12:00,
2013-05-14 16:44:00,63.0,29.0,-100.00,North,0,19.0,31.0,28,0.00,,,0.00,892.000000,,2013-05-14 23:44:00,
2013-05-14 16:52:00,63.0,29.0,-100.00,North,0,19.0,31.0,28,0.00,,,0.00,892.000000,,2013-05-14 23:52:00,
2013-05-14 17:01:00,63.0,29.0,-100.00,North,0,19.0,31.0,28,0.00,,,0.00,892.000000,,2013-05-15 00:01:00,
2013-05-14 17:11:00,63.0,29.0,-100.00,North,0,19.0,31.0,28,0.00,,,0.00,892.000000,,2013-05-15 00:11:00,
2013-05-14 17:42:00,62.0,24.0,-100.00,North,0,21.0,34.0,23,0.00,,,0.00,686.000000,,2013-05-15 00:42:00,
2013-05-14 17:52:00,62.0,24.0,-100.00,North,0,21.0,34.0,23,0.00,,,0.00,686.000000,,2013-05-15 00:52:00,
2013-05-14 18:01:00,62.0,24.0,-100.00,North,0,21.0,34.0,23,0.00,,,0.00,686.000000,,2013-05-15 01:01:00,
2013-05-14 18:11:00,62.0,24.0,-100.00,North,0,21.0,34.0,23,0.00,,,0.00,686.000000,,2013-05-15 01:11:00,
2013-05-14 18:42:00,57.0,33.0,-100.00,North,1,16.0,30.0,40,0.00,,,0.00,416.000000,,2013-05-15 01:42:00,
2013-05-14 18:52:00,57.0,33.0,-100.00,North,1,16.0,30.0,40,0.00,,,0.00,416.000000,,2013-05-15 01:52:00,
2013-05-14 19:01:00,57.0,33.0,-100.00,North,1,16.0,30.0,40,0.00,,,0.00,416.000000,,2013-05-15 02:01:00,
2013-05-14 19:11:00,57.0,33.0,-100.00,North,1,16.0,30.0,40,0.00,,,0.00,416.000000,,2013-05-15 02:11:00,
2013-05-14 19:32:00,52.0,35.0,-100.00,North,1,15.0,24.0,53,0.00,,,0.00,60.000000,,2013-05-15 02:32:00,
2013-05-14 19:42:00,52.0,35.0,-100.00,North,1,15.0,24.0,53,0.00,,,0.00,60.000000,,2013-05-15 02:42:00,
2013-05-14 19:52:00,52.0,35.0,-100.00,North,1,15.0,24.0,53,0.00,,,0.00,60.000000,,2013-05-15 02:52:00,
2013-05-14 20:01:00,52.0,35.0,-100.00,North,1,15.0,24.0,53,0.00,,,0.00,60.000000,,2013-05-15 03:01:00,
2013-05-14 20:12:00,52.0,35.0,-100.00,North,1,15.0,24.0,53,0.00,,,0.00,60.000000,,2013-05-15 03:12:00,
2013-05-14 20:44:00,50.0,36.0,-100.00,North,1,13.0,22.0,58,0.00,,,0.00,10.000000,,2013-05-15 03:44:00,
2013-05-14 20:54:00,50.0,36.0,-100.00,North,1,13.0,22.0,58,0.00,,,0.00,10.000000,,2013-05-15 03:54:00,
2013-05-14 21:03:00,50.0,36.0,-100.00,North,1,13.0,22.0,58,0.00,,,0.00,10.000000,,2013-05-15 04:03:00,
2013-05-14 21:12:00,50.0,36.0,-100.00,North,1,13.0,22.0,58,0.00,,,0.00,10.000000,,2013-05-15 04:12:00,
2013-05-14 21:33:00,53.0,20.0,-100.00,North,1,14.0,20.0,27,0.00,,,0.00,2.000000,,2013-05-15 04:33:00,
2013-05-14 21:43:00,53.0,20.0,-100.00,North,1,14.0,20.0,27,0.00,,,0.00,2.000000,,2013-05-15 04:43:00,
2013-05-14 21:52:00,53.0,20.0,-100.00,North,1,14.0,20.0,27,0.00,,,0.00,2.000000,,2013-05-15 04:52:00,
2013-05-14 22:02:00,53.0,20.0,-100.00,North,1,14.0,20.0,27,0.00,,,0.00,2.000000,,2013-05-15 05:02:00,
2013-05-14 22:42:00,51.0,21.0,-100.00,North,1,9.0,19.0,31,0.00,,,0.00,3.000000,,2013-05-15 05:42:00,
2013-05-14 22:52:00,51.0,21.0,-100.00,North,1,9.0,19.0,31,0.00,,,0.00,3.000000,,2013-05-15 05:52:00,
2013-05-14 23:02:00,51.0,21.0,-100.00,North,1,9.0,19.0,31,0.00,,,0.00,3.000000,,2013-05-15 06:02:00,
2013-05-14 23:11:00,51.0,21.0,-100.00,North,1,9.0,19.0,31,0.00,,,0.00,3.000000,,2013-05-15 06:11:00,
2013-05-14 23:42:00,51.0,22.0,-100.00,North,1,4.0,12.0,32,0.00,,,0.00,2.000000,,2013-05-15 06:42:00,
2013-05-14 23:52:00,51.0,22.0,-100.00,North,1,4.0,12.0,32,0.00,,,0.00,2.000000,,2013-05-15 06:52:00,